Time;durP1;ratioP1;P1;durP2;ratioP2;P2;SDS_P1;SDS_P2;PMS_P1;PMS_P2;Temp;Humidity;BMP_temperature;BMP_pressure;BME280_temperature;BME280_humidity;BME280_pressure;Samples;Min_cycle;Max_cycle;Signal;HPM_P1;HPM_P2
2023/05/14 00:00:10;;;;;;;0.20;0.20;;;;;;;;;;4922535;29;20114;-73
2023/05/14 00:02:36;;;;;;;0.10;0.10;;;;;;;;;;4914521;29;20139;-73
2023/05/14 00:05:02;;;;;;;0.20;0.20;;;;;;;;;;4912951;29;20135;-73
2023/05/14 00:07:29;;;;;;;0.20;0.20;;;;;;;;;;4933142;29;20047;-73
2023/05/14 00:09:59;;;;;;;0.10;0.10;;;;;;;;;;4927731;29;20079;-73
2023/05/14 00:12:25;;;;;;;0.15;0.15;;;;;;;;;;4921758;29;20404;-73
2023/05/14 00:14:51;;;;;;;0.20;0.20;;;;;;;;;;4930143;29;20590;-73
2023/05/14 00:17:27;;;;;;;0.10;0.10;;;;;;;;;;4923996;29;20066;-73
2023/05/14 00:19:53;;;;;;;0.10;0.10;;;;;;;;;;4926033;29;20410;-73
2023/05/14 00:22:19;;;;;;;0.20;0.20;;;;;;;;;;4926726;29;20126;-73
2023/05/14 00:24:45;;;;;;;0.10;0.10;;;;;;;;;;4924618;29;20486;-74
2023/05/14 00:27:11;;;;;;;0.20;0.20;;;;;;;;;;4918177;29;20522;-73
2023/05/14 00:29:37;;;;;;;0.20;0.20;;;;;;;;;;4970470;23;20051;-73
2023/05/14 00:32:03;;;;;;;0.10;0.10;;;;;;;;;;4943899;28;20118;-73
2023/05/14 00:34:29;;;;;;;0.20;0.20;;;;;;;;;;4936908;23;20419;-73
2023/05/14 00:40:25;;;;;;;0.10;0.10;;;;;;;;;;4929595;29;20056;-74
2023/05/14 00:42:51;;;;;;;0.10;0.10;;;;;;;;;;4914333;29;20377;-73
2023/05/14 00:45:18;;;;;;;0.10;0.10;;;;;;;;;;4931087;29;20466;-73
2023/05/14 00:47:46;;;;;;;0.10;0.10;;;;;;;;;;4932628;29;20090;-73
2023/05/14 00:50:13;;;;;;;0.10;0.10;;;;;;;;;;4931743;29;20055;-73
2023/05/14 00:52:40;;;;;;;0.10;0.10;;;;;;;;;;4932677;29;20135;-74
2023/05/14 00:55:06;;;;;;;0.17;0.17;;;;;;;;;;4915264;29;20048;-73
2023/05/14 00:57:33;;;;;;;0.20;0.20;;;;;;;;;;4912222;29;20048;-73
2023/05/14 00:59:59;;;;;;;0.13;0.13;;;;;;;;;;4930361;29;20047;-74
2023/05/14 01:02:25;;;;;;;0.20;0.20;;;;;;;;;;4928209;29;20050;-73
2023/05/14 01:04:51;;;;;;;0.20;0.20;;;;;;;;;;4916496;29;20067;-73
2023/05/14 01:07:23;;;;;;;0.20;0.20;;;;;;;;;;4931531;29;20444;-73
2023/05/14 01:09:49;;;;;;;0.20;0.20;;;;;;;;;;4914516;29;20043;-73
2023/05/14 01:12:15;;;;;;;0.13;0.13;;;;;;;;;;4934281;29;20039;-73
2023/05/14 01:14:51;;;;;;;0.10;0.10;;;;;;;;;;4927784;29;20067;-74
2023/05/14 01:17:19;;;;;;;0.20;0.20;;;;;;;;;;4911220;29;20040;-73
2023/05/14 01:19:46;;;;;;;0.20;0.20;;;;;;;;;;4953893;23;20142;-73
2023/05/14 01:22:12;;;;;;;0.20;0.20;;;;;;;;;;4972910;28;20576;-73
2023/05/14 01:24:47;;;;;;;0.10;0.10;;;;;;;;;;4957199;28;20089;-73
2023/05/14 01:27:17;;;;;;;0.20;0.20;;;;;;;;;;4974216;28;20038;-73
2023/05/14 01:29:47;;;;;;;0.20;0.20;;;;;;;;;;4974546;28;20042;-74
2023/05/14 01:32:15;;;;;;;0.10;0.10;;;;;;;;;;4952763;28;20042;-73
2023/05/14 01:34:41;;;;;;;0.10;0.10;;;;;;;;;;4961341;28;20525;-73
2023/05/14 01:37:08;;;;;;;0.20;0.20;;;;;;;;;;4963068;28;20043;-73
2023/05/14 01:39:39;;;;;;;0.20;0.20;;;;;;;;;;4954060;28;20070;-73
2023/05/14 01:42:06;;;;;;;0.13;0.13;;;;;;;;;;4973168;28;20561;-73
2023/05/14 01:44:33;;;;;;;0.10;0.10;;;;;;;;;;4968386;28;20053;-73
2023/05/14 01:46:59;;;;;;;0.20;0.20;;;;;;;;;;4955307;28;20035;-73
2023/05/14 01:49:25;;;;;;;0.10;0.10;;;;;;;;;;4968599;28;20046;-73
2023/05/14 01:51:51;;;;;;;0.10;0.10;;;;;;;;;;4960159;28;20479;-73
2023/05/14 01:54:17;;;;;;;0.13;0.13;;;;;;;;;;4955682;28;20670;-73
2023/05/14 01:56:43;;;;;;;0.15;0.15;;;;;;;;;;4957416;28;20542;-73
2023/05/14 01:59:09;;;;;;;0.10;0.10;;;;;;;;;;4971053;28;20097;-73
2023/05/14 02:01:35;;;;;;;0.10;0.10;;;;;;;;;;4952064;28;20051;-73
2023/05/14 02:04:01;;;;;;;0.10;0.10;;;;;;;;;;4947721;28;20047;-73
2023/05/14 02:06:27;;;;;;;0.10;0.10;;;;;;;;;;4946829;28;20053;-73
2023/05/14 02:08:53;;;;;;;0.20;0.20;;;;;;;;;;4971742;28;20051;-73
2023/05/14 02:11:19;;;;;;;0.10;0.10;;;;;;;;;;4954314;28;20046;-73
2023/05/14 02:13:45;;;;;;;0.20;0.20;;;;;;;;;;4952594;28;20122;-73
2023/05/14 02:16:11;;;;;;;0.20;0.20;;;;;;;;;;4951768;28;20490;-73
2023/05/14 02:18:37;;;;;;;0.30;0.30;;;;;;;;;;4965726;28;20411;-73
2023/05/14 02:21:03;;;;;;;0.20;0.20;;;;;;;;;;4967257;28;20568;-73
2023/05/14 02:23:29;;;;;;;0.20;0.20;;;;;;;;;;4954226;28;20070;-73
2023/05/14 02:25:55;;;;;;;0.10;0.10;;;;;;;;;;4952786;28;20904;-73
2023/05/14 02:28:24;;;;;;;0.20;0.20;;;;;;;;;;4955921;23;20499;-73
2023/05/14 02:30:58;;;;;;;0.20;0.20;;;;;;;;;;4951280;28;20554;-72
2023/05/14 02:33:24;;;;;;;0.17;0.17;;;;;;;;;;4952421;28;20035;-73
2023/05/14 02:35:50;;;;;;;0.20;0.20;;;;;;;;;;4952463;28;20053;-73
2023/05/14 02:38:26;;;;;;;0.10;0.10;;;;;;;;;;4939708;28;20126;-73
2023/05/14 02:40:52;;;;;;;0.20;0.20;;;;;;;;;;4939546;28;20562;-73
2023/05/14 02:43:18;;;;;;;0.10;0.10;;;;;;;;;;4939416;28;20054;-73
2023/05/14 02:45:44;;;;;;;0.10;0.10;;;;;;;;;;4959906;28;20046;-73
2023/05/14 02:48:10;;;;;;;0.10;0.10;;;;;;;;;;4959216;28;20047;-73
2023/05/14 02:50:36;;;;;;;0.10;0.10;;;;;;;;;;4947044;28;20038;-73
2023/05/14 02:53:02;;;;;;;0.20;0.20;;;;;;;;;;4972282;28;20105;-73
2023/05/14 02:55:28;;;;;;;0.20;0.20;;;;;;;;;;4936293;29;20630;-73
2023/05/14 02:57:54;;;;;;;0.17;0.17;;;;;;;;;;4938157;29;20066;-73
2023/05/14 03:00:20;;;;;;;0.20;0.20;;;;;;;;;;4952353;29;20102;-73
2023/05/14 03:02:46;;;;;;;0.10;0.10;;;;;;;;;;4966119;28;20043;-73
2023/05/14 03:05:12;;;;;;;0.20;0.20;;;;;;;;;;4948074;29;20044;-73
2023/05/14 03:07:38;;;;;;;0.20;0.20;;;;;;;;;;4953944;29;20167;-73
2023/05/14 03:10:04;;;;;;;0.10;0.10;;;;;;;;;;4945858;29;20043;-73
2023/05/14 03:12:30;;;;;;;0.10;0.10;;;;;;;;;;4921868;28;20173;-73
2023/05/14 03:14:56;;;;;;;0.20;0.20;;;;;;;;;;4946355;28;20182;-73
2023/05/14 03:17:25;;;;;;;0.10;0.10;;;;;;;;;;4951459;29;20100;-73
2023/05/14 03:19:51;;;;;;;0.10;0.10;;;;;;;;;;4937421;29;20058;-74
2023/05/14 03:22:19;;;;;;;0.10;0.10;;;;;;;;;;4925803;29;20047;-74
2023/05/14 03:24:45;;;;;;;0.10;0.10;;;;;;;;;;4953814;23;20059;-74
2023/05/14 03:27:11;;;;;;;0.20;0.20;;;;;;;;;;5113349;23;20069;-73
2023/05/14 03:29:37;;;;;;;0.10;0.10;;;;;;;;;;4963204;28;20164;-74
2023/05/14 03:32:04;;;;;;;0.20;0.20;;;;;;;;;;4960971;28;20074;-74
2023/05/14 03:34:30;;;;;;;0.20;0.20;;;;;;;;;;4966152;28;20046;-73
2023/05/14 03:36:56;;;;;;;0.10;0.10;;;;;;;;;;4947048;29;20055;-74
2023/05/14 03:39:24;;;;;;;0.10;0.10;;;;;;;;;;4946197;28;20034;-73
2023/05/14 03:41:50;;;;;;;0.10;0.10;;;;;;;;;;4965141;28;20078;-73
2023/05/14 03:44:16;;;;;;;0.20;0.20;;;;;;;;;;4955969;28;20391;-73
2023/05/14 03:46:42;;;;;;;0.10;0.10;;;;;;;;;;4950485;28;20440;-73
2023/05/14 03:49:08;;;;;;;0.20;0.20;;;;;;;;;;4953564;28;20539;-73
2023/05/14 03:51:34;;;;;;;0.10;0.10;;;;;;;;;;4961985;28;20039;-73
2023/05/14 03:54:03;;;;;;;0.20;0.20;;;;;;;;;;4949727;28;20054;-73
2023/05/14 03:56:29;;;;;;;0.10;0.10;;;;;;;;;;4962249;28;20043;-73
2023/05/14 03:58:55;;;;;;;0.10;0.10;;;;;;;;;;4968706;28;20110;-73
2023/05/14 04:01:21;;;;;;;0.10;0.10;;;;;;;;;;4948793;28;20043;-73
2023/05/14 04:03:47;;;;;;;0.10;0.10;;;;;;;;;;4961079;28;20109;-73
2023/05/14 04:06:13;;;;;;;0.13;0.13;;;;;;;;;;4951933;28;20047;-73
2023/05/14 04:08:39;;;;;;;0.10;0.10;;;;;;;;;;5017489;23;20138;-73
2023/05/14 04:11:05;;;;;;;0.10;0.10;;;;;;;;;;4960361;28;20058;-73
2023/05/14 04:13:31;;;;;;;0.15;0.15;;;;;;;;;;4958198;28;20043;-74
2023/05/14 04:15:57;;;;;;;0.10;0.10;;;;;;;;;;4968577;28;20392;-73
2023/05/14 04:18:23;;;;;;;0.20;0.20;;;;;;;;;;4956593;28;20050;-73
2023/05/14 04:20:49;;;;;;;0.20;0.20;;;;;;;;;;4969269;28;20062;-73
2023/05/14 04:23:18;;;;;;;0.10;0.10;;;;;;;;;;4969378;28;20031;-73
2023/05/14 04:25:44;;;;;;;0.10;0.10;;;;;;;;;;4968963;28;20057;-73
2023/05/14 04:28:10;;;;;;;0.20;0.20;;;;;;;;;;4958713;28;20085;-73
2023/05/14 04:30:36;;;;;;;0.17;0.17;;;;;;;;;;4960140;28;20043;-73
2023/05/14 04:33:02;;;;;;;0.20;0.20;;;;;;;;;;4962937;28;20070;-73
2023/05/14 04:35:28;;;;;;;0.20;0.20;;;;;;;;;;4982304;28;20105;-73
2023/05/14 04:37:55;;;;;;;0.10;0.10;;;;;;;;;;4970193;28;20043;-73
2023/05/14 04:40:24;;;;;;;0.20;0.20;;;;;;;;;;4983667;28;20041;-73
2023/05/14 04:42:50;;;;;;;0.20;0.20;;;;;;;;;;4963464;28;20049;-73
2023/05/14 04:45:16;;;;;;;0.10;0.10;;;;;;;;;;4956294;28;20051;-73
2023/05/14 04:47:43;;;;;;;0.10;0.10;;;;;;;;;;4963354;23;20091;-73
2023/05/14 04:50:10;;;;;;;0.10;0.10;;;;;;;;;;4952878;28;20059;-73
2023/05/14 04:52:35;;;;;;;0.20;0.20;;;;;;;;;;4935761;29;20049;-73
2023/05/14 04:55:01;;;;;;;0.10;0.10;;;;;;;;;;4942726;28;20051;-73
2023/05/14 04:57:27;;;;;;;0.10;0.10;;;;;;;;;;4956814;28;20046;-73
2023/05/14 04:59:53;;;;;;;0.10;0.10;;;;;;;;;;4930663;29;20129;-73
2023/05/14 05:02:22;;;;;;;0.15;0.15;;;;;;;;;;4947293;28;20560;-73
2023/05/14 05:05:03;;;;;;;0.10;0.10;;;;;;;;;;4954406;28;20059;-73
2023/05/14 05:07:29;;;;;;;0.10;0.10;;;;;;;;;;4939426;28;20462;-73
2023/05/14 05:10:01;;;;;;;0.10;0.10;;;;;;;;;;4950818;28;20078;-73
2023/05/14 05:12:34;;;;;;;0.10;0.10;;;;;;;;;;4934168;29;20127;-73
2023/05/14 05:15:00;;;;;;;0.10;0.10;;;;;;;;;;4935029;28;21357;-73
2023/05/14 05:17:26;;;;;;;0.20;0.20;;;;;;;;;;4956918;28;20075;-73
2023/05/14 05:19:52;;;;;;;0.10;0.10;;;;;;;;;;4933552;29;20055;-73
2023/05/14 05:22:19;;;;;;;0.10;0.10;;;;;;;;;;4954472;28;20055;-73
2023/05/14 05:24:45;;;;;;;0.10;0.10;;;;;;;;;;4968507;28;20059;-73
2023/05/14 05:27:11;;;;;;;0.10;0.10;;;;;;;;;;4944373;28;20592;-73
2023/05/14 05:29:37;;;;;;;0.20;0.20;;;;;;;;;;4958681;28;20074;-73
2023/05/14 05:32:03;;;;;;;0.10;0.10;;;;;;;;;;4949633;29;20045;-73
2023/05/14 05:34:29;;;;;;;0.20;0.20;;;;;;;;;;4934236;29;20043;-73
2023/05/14 05:36:58;;;;;;;0.20;0.20;;;;;;;;;;4934447;29;20051;-73
2023/05/14 05:39:24;;;;;;;0.10;0.10;;;;;;;;;;4951180;29;20046;-73
2023/05/14 05:41:50;;;;;;;0.20;0.20;;;;;;;;;;4971453;23;20149;-73
2023/05/14 05:44:19;;;;;;;0.10;0.10;;;;;;;;;;4967525;28;20122;-74
2023/05/14 05:46:45;;;;;;;0.10;0.10;;;;;;;;;;4961551;28;20508;-72
2023/05/14 05:49:11;;;;;;;0.10;0.10;;;;;;;;;;4935468;29;20039;-73
2023/05/14 05:51:37;;;;;;;0.10;0.10;;;;;;;;;;4955464;28;20135;-73
2023/05/14 05:54:03;;;;;;;0.10;0.10;;;;;;;;;;4968324;28;20047;-73
2023/05/14 05:56:31;;;;;;;0.10;0.10;;;;;;;;;;4972232;28;20430;-73
2023/05/14 05:58:57;;;;;;;0.10;0.10;;;;;;;;;;4970098;28;20051;-73
2023/05/14 06:01:24;;;;;;;0.10;0.10;;;;;;;;;;4971359;28;20050;-73
2023/05/14 06:03:50;;;;;;;0.10;0.10;;;;;;;;;;4980463;23;20082;-74
2023/05/14 06:06:16;;;;;;;0.20;0.20;;;;;;;;;;4974503;28;20403;-73
2023/05/14 06:08:42;;;;;;;0.10;0.10;;;;;;;;;;4979747;28;20058;-73
2023/05/14 06:11:11;;;;;;;0.15;0.15;;;;;;;;;;4982973;28;20046;-73
2023/05/14 06:13:40;;;;;;;0.15;0.15;;;;;;;;;;4972158;28;20054;-87
2023/05/14 06:16:06;;;;;;;0.20;0.20;;;;;;;;;;4968314;28;20053;-84
2023/05/14 06:18:32;;;;;;;0.20;0.20;;;;;;;;;;4991703;28;20054;-87
2023/05/14 06:23:40;;;;;;;0.10;0.10;;;;;;;;;;4958632;23;20146;-86
2023/05/14 06:26:06;;;;;;;0.20;0.20;;;;;;;;;;4960548;28;20134;-88
2023/05/14 06:28:39;;;;;;;0.10;0.10;;;;;;;;;;4936313;29;20055;-86
2023/05/14 06:31:05;;;;;;;0.10;0.10;;;;;;;;;;4926622;29;20043;-85
2023/05/14 06:33:31;;;;;;;0.20;0.20;;;;;;;;;;4960514;29;20043;-86
2023/05/14 06:36:03;;;;;;;0.10;0.10;;;;;;;;;;4946080;29;20097;-86
2023/05/14 06:38:29;;;;;;;;;;;;;;;;;;4939723;29;20107;-86
2023/05/14 06:40:55;;;;;;;0.17;0.17;;;;;;;;;;4948465;29;19930;-86
2023/05/14 06:43:24;;;;;;;0.20;0.20;;;;;;;;;;4935540;29;20048;-85
2023/05/14 06:45:50;;;;;;;0.20;0.20;;;;;;;;;;4952626;28;20094;-86
2023/05/14 06:48:20;;;;;;;0.20;0.20;;;;;;;;;;4937257;29;20047;-85
2023/05/14 06:50:49;;;;;;;0.17;0.17;;;;;;;;;;4937083;29;20057;-86
2023/05/14 06:53:15;;;;;;;0.20;0.20;;;;;;;;;;4937467;29;20079;-86
2023/05/14 06:55:46;;;;;;;0.20;0.20;;;;;;;;;;4937139;29;20059;-85
2023/05/14 06:58:12;;;;;;;;;;;;;;;;;;4956286;29;20063;-86
2023/05/14 07:00:38;;;;;;;0.20;0.20;;;;;;;;;;4954219;29;19922;-86
2023/05/14 07:03:04;;;;;;;0.20;0.20;;;;;;;;;;4934917;29;20051;-86
2023/05/14 07:05:30;;;;;;;0.10;0.10;;;;;;;;;;4948125;28;20047;-85
2023/05/14 07:07:57;;;;;;;0.20;0.20;;;;;;;;;;4961036;28;20054;-85
2023/05/14 07:10:23;;;;;;;0.20;0.20;;;;;;;;;;4926403;29;20047;-85
2023/05/14 07:12:49;;;;;;;0.10;0.10;;;;;;;;;;4951085;29;20043;-86
2023/05/14 07:15:15;;;;;;;0.10;0.10;;;;;;;;;;4932546;29;20130;-85
2023/05/14 07:17:41;;;;;;;0.20;0.20;;;;;;;;;;4948796;28;20035;-85
2023/05/14 07:20:08;;;;;;;0.20;0.20;;;;;;;;;;4954859;29;20078;-85
2023/05/14 07:22:34;;;;;;;0.20;0.20;;;;;;;;;;4938860;29;20058;-84
2023/05/14 07:25:01;;;;;;;0.17;0.17;;;;;;;;;;4953778;29;20047;-85
2023/05/14 07:27:27;;;;;;;0.17;0.17;;;;;;;;;;4954565;29;20047;-85
2023/05/14 07:29:54;;;;;;;0.20;0.20;;;;;;;;;;4951791;28;20047;-85
2023/05/14 07:32:32;;;;;;;0.20;0.20;;;;;;;;;;4936728;29;20142;-83
2023/05/14 07:34:58;;;;;;;0.20;0.20;;;;;;;;;;4956596;23;20054;-85
2023/05/14 07:37:25;;;;;;;0.15;0.15;;;;;;;;;;4950269;28;20062;-85
2023/05/14 07:39:51;;;;;;;0.10;0.10;;;;;;;;;;4969915;28;20047;-84
2023/05/14 07:42:18;;;;;;;0.20;0.20;;;;;;;;;;4951894;28;20046;-85
2023/05/14 07:44:44;;;;;;;0.20;0.20;;;;;;;;;;4946172;29;20133;-84
2023/05/14 07:47:10;;;;;;;0.17;0.17;;;;;;;;;;4956406;23;20071;-84
2023/05/14 07:49:36;;;;;;;0.20;0.20;;;;;;;;;;4976206;28;20117;-84
2023/05/14 07:52:03;;;;;;;0.13;0.13;;;;;;;;;;4977335;28;20525;-86
2023/05/14 07:54:29;;;;;;;0.20;0.20;;;;;;;;;;4972093;28;20054;-84
2023/05/14 07:57:04;;;;;;;0.10;0.10;;;;;;;;;;4984393;28;20038;-85
2023/05/14 08:02:30;;;;;;;0.20;0.20;;;;;;;;;;4955426;23;20063;-85
2023/05/14 08:07:21;;;;;;;0.10;0.10;;;;;;;;;;5004101;23;20318;-84
2023/05/14 08:09:48;;;;;;;0.20;0.20;;;;;;;;;;4960611;28;20454;-86
2023/05/14 08:12:14;;;;;;;0.15;0.15;;;;;;;;;;4955830;28;20053;-87
2023/05/14 08:14:40;;;;;;;0.15;0.15;;;;;;;;;;4956710;28;20042;-84
2023/05/14 08:17:09;;;;;;;0.20;0.20;;;;;;;;;;4958929;28;20039;-85
2023/05/14 08:19:35;;;;;;;0.10;0.10;;;;;;;;;;4955889;28;20130;-86
2023/05/14 08:22:02;;;;;;;0.20;0.20;;;;;;;;;;4973426;28;20046;-85
2023/05/14 08:24:31;;;;;;;0.20;0.20;;;;;;;;;;4970781;28;20039;-85
2023/05/14 08:26:57;;;;;;;0.15;0.15;;;;;;;;;;4954777;28;20050;-83
2023/05/14 08:29:26;;;;;;;0.20;0.20;;;;;;;;;;4971492;28;20101;-83
2023/05/14 08:32:01;;;;;;;0.20;0.20;;;;;;;;;;4972682;28;20121;-85
2023/05/14 08:34:27;;;;;;;0.10;0.10;;;;;;;;;;4966950;23;20134;-79
2023/05/14 08:36:54;;;;;;;0.20;0.20;;;;;;;;;;4952559;28;20110;-81
2023/05/14 08:39:20;;;;;;;0.20;0.20;;;;;;;;;;4951075;29;20131;-80
2023/05/14 08:41:46;;;;;;;0.20;0.20;;;;;;;;;;4949949;29;20051;-80
2023/05/14 08:44:13;;;;;;;0.20;0.20;;;;;;;;;;4950720;29;20055;-79
2023/05/14 08:46:40;;;;;;;0.20;0.20;;;;;;;;;;4948650;29;20047;-80
2023/05/14 08:49:35;;;;;;;0.17;0.17;;;;;;;;;;4940034;29;20043;-81
2023/05/14 08:52:02;;;;;;;0.20;0.20;;;;;;;;;;4943842;29;20051;-80
2023/05/14 08:54:31;;;;;;;0.20;0.20;;;;;;;;;;4961682;29;20047;-80
2023/05/14 08:56:58;;;;;;;0.10;0.10;;;;;;;;;;4943261;28;20058;-81
2023/05/14 08:59:24;;;;;;;0.20;0.20;;;;;;;;;;4946481;28;20106;-81
2023/05/14 09:01:52;;;;;;;0.10;0.10;;;;;;;;;;4946490;28;20487;-81
2023/05/14 09:04:24;;;;;;;0.20;0.20;;;;;;;;;;4950774;29;20039;-81
2023/05/14 09:06:52;;;;;;;0.10;0.10;;;;;;;;;;4947598;29;20059;-81
2023/05/14 09:09:21;;;;;;;0.20;0.20;;;;;;;;;;4949157;28;20173;-81
2023/05/14 09:11:48;;;;;;;0.20;0.20;;;;;;;;;;4951503;28;20043;-81
2023/05/14 09:14:14;;;;;;;0.20;0.20;;;;;;;;;;4935408;29;20377;-81
2023/05/14 09:16:41;;;;;;;0.20;0.20;;;;;;;;;;4944267;29;20437;-81
2023/05/14 09:19:08;;;;;;;0.10;0.10;;;;;;;;;;4951667;28;20051;-79
2023/05/14 09:21:34;;;;;;;0.15;0.15;;;17.90;99.90;;;;;;4950536;28;20098;-81
2023/05/14 09:24:02;;;;;;;0.20;0.20;;;17.30;99.90;;;;;;4951978;29;20312;-80
2023/05/14 09:26:36;;;;;;;0.20;0.20;;;17.30;99.90;;;;;;4952020;29;20082;-83
2023/05/14 09:29:02;;;;;;;0.15;0.15;;;17.30;99.90;;;;;;4952034;29;20531;-81
2023/05/14 09:31:30;;;;;;;0.10;0.10;;;17.40;99.90;;;;;;4947451;28;20131;-84
2023/05/14 09:33:55;;;;;;;0.20;0.20;;;17.40;99.90;;;;;;4969721;28;20039;-83
2023/05/14 09:36:22;;;;;;;0.20;0.20;;;17.50;99.90;;;;;;4960339;28;20082;-81
2023/05/14 09:38:47;;;;;;;0.15;0.15;;;17.60;99.90;;;;;;4952181;29;20047;-81
2023/05/14 09:41:15;;;;;;;0.10;0.10;;;17.60;99.90;;;;;;4946753;28;20484;-80
2023/05/14 09:43:41;;;;;;;0.17;0.17;;;17.70;99.90;;;;;;4947447;29;20059;-82
2023/05/14 09:46:07;;;;;;;0.10;0.10;;;17.70;99.90;;;;;;4945771;29;20050;-81
2023/05/14 09:48:35;;;;;;;0.20;0.20;;;17.80;99.90;;;;;;4955399;29;20078;-81
2023/05/14 09:51:01;;;;;;;0.20;0.20;;;17.90;99.90;;;;;;4951835;28;20070;-82
2023/05/14 09:53:28;;;;;;;0.20;0.20;;;18.00;99.90;;;;;;4939488;28;20047;-82
2023/05/14 09:55:54;;;;;;;0.10;0.10;;;18.00;99.90;;;;;;4949933;28;20046;-84
2023/05/14 09:58:22;;;;;;;0.20;0.20;;;18.00;99.90;;;;;;4960719;28;20040;-82
2023/05/14 10:00:49;;;;;;;0.20;0.20;;;18.10;99.90;;;;;;4938652;23;20054;-83
2023/05/14 10:03:17;;;;;;;0.20;0.20;;;18.20;99.90;;;;;;5002943;23;20055;-83
2023/05/14 10:06:30;;;;;;;0.15;0.15;;;18.30;99.90;;;;;;4958183;23;20134;-83
2023/05/14 10:09:25;;;;;;;0.22;0.22;;;18.40;99.90;;;;;;4952579;29;20134;-86
2023/05/14 10:12:00;;;;;;;0.20;0.20;;;18.60;99.90;;;;;;4951013;28;20185;-83
2023/05/14 10:14:37;;;;;;;0.20;0.20;;;18.60;99.90;;;;;;4953417;29;20111;-82
2023/05/14 10:17:16;;;;;;;0.10;0.10;;;18.70;99.90;;;;;;4950714;29;20503;-85
2023/05/14 10:19:46;;;;;;;0.20;0.20;;;18.80;99.90;;;;;;4947614;29;20047;-82
2023/05/14 10:22:13;;;;;;;0.10;0.10;;;18.90;99.90;;;;;;4945021;29;21122;-81
2023/05/14 10:24:40;;;;;;;0.20;0.20;;;18.90;99.90;;;;;;5155577;23;20133;-83
2023/05/14 10:27:09;;;;;;;0.20;0.20;;;19.00;99.90;;;;;;4984915;28;20113;-84
2023/05/14 10:29:36;;;;;;;0.20;0.20;;;19.10;99.90;;;;;;4985311;28;20050;-80
2023/05/14 10:32:07;;;;;;;0.20;0.20;;;19.10;99.90;;;;;;4972899;28;20074;-81
2023/05/14 10:34:42;;;;;;;0.10;0.10;;;19.10;99.90;;;;;;4972701;28;20102;-79
2023/05/14 10:37:20;;;;;;;0.20;0.20;;;19.10;99.90;;;;;;4962847;28;20046;-81
2023/05/14 10:40:05;;;;;;;0.20;0.20;;;19.20;99.90;;;;;;4984446;28;20078;-80
2023/05/14 10:42:42;;;;;;;0.10;0.10;;;19.20;99.90;;;;;;4969801;28;20513;-81
2023/05/14 10:45:13;;;;;;;0.20;0.20;;;19.20;99.90;;;;;;4971526;28;20058;-80
2023/05/14 10:47:42;;;;;;;0.20;0.20;;;19.20;99.90;;;;;;4968099;28;20065;-79
2023/05/14 10:50:10;;;;;;;0.20;0.20;;;19.30;99.90;;;;;;4971450;28;20101;-79
2023/05/14 10:52:36;;;;;;;0.20;0.20;;;19.40;99.90;;;;;;4967149;28;20126;-80
2023/05/14 10:55:08;;;;;;;0.20;0.20;;;19.50;99.90;;;;;;4957495;23;20134;-80
2023/05/14 10:57:38;;;;;;;0.10;0.10;;;19.60;99.90;;;;;;4934253;28;20126;-80
2023/05/14 11:00:11;;;;;;;0.20;0.20;;;19.70;99.90;;;;;;4951557;28;20126;-79
2023/05/14 11:02:45;;;;;;;0.20;0.20;;;19.80;99.90;;;;;;4935859;28;20043;-80
2023/05/14 11:05:15;;;;;;;0.20;0.20;;;19.90;99.90;;;;;;4941757;28;20054;-81
2023/05/14 11:07:46;;;;;;;0.20;0.20;;;20.00;99.90;;;;;;4941828;28;20111;-81
2023/05/14 11:10:31;;;;;;;0.20;0.20;;;20.00;99.90;;;;;;4996530;23;20055;-82
2023/05/14 11:13:11;;;;;;;0.10;0.10;;;20.10;99.90;;;;;;4960552;29;20056;-81
2023/05/14 11:15:48;;;;;;;0.20;0.20;;;20.20;99.90;;;;;;4959700;28;20057;-82
2023/05/14 11:18:28;;;;;;;0.20;0.20;;;20.30;99.90;;;;;;4961253;28;20089;-82
2023/05/14 11:21:00;;;;;;;0.20;0.20;;;20.80;99.90;;;;;;4970880;28;20181;-82
2023/05/14 11:23:38;;;;;;;0.20;0.20;;;20.30;99.90;;;;;;4969793;28;20054;-82
2023/05/14 11:26:03;;;;;;;0.20;0.20;;;20.60;99.90;;;;;;4972657;28;20046;-82
2023/05/14 11:28:38;;;;;;;0.10;0.10;;;20.70;99.90;;;;;;4972285;28;20050;-83
2023/05/14 11:31:04;;;;;;;0.20;0.20;;;20.80;99.90;;;;;;4971339;28;20892;-83
2023/05/14 11:33:53;;;;;;;0.20;0.20;;;20.90;99.90;;;;;;4973159;28;20360;-83
2023/05/14 11:36:19;;;;;;;0.22;0.20;;;;;;;;;;4972112;28;20046;-84
2023/05/14 11:39:37;;;;;;;0.20;0.20;;;21.10;99.90;;;;;;4973162;28;20093;-84
2023/05/14 11:42:17;;;;;;;0.20;0.20;;;21.00;99.90;;;;;;4980109;28;20097;-81
2023/05/14 11:44:47;;;;;;;0.20;0.20;;;21.10;99.90;;;;;;4965894;28;20478;-81
2023/05/14 11:47:33;;;;;;;0.20;0.20;;;21.10;99.90;;;;;;4967880;28;20046;-81
2023/05/14 11:50:21;;;;;;;0.20;0.20;;;21.10;99.90;;;;;;4963472;28;20126;-81
2023/05/14 11:52:59;;;;;;;0.20;0.20;;;21.20;99.90;;;;;;4952451;29;20078;-81
2023/05/14 11:55:25;;;;;;;0.20;0.20;;;21.10;99.90;;;;;;4957845;28;20054;-81
2023/05/14 11:57:51;;;;;;;0.20;0.20;;;21.20;99.90;;;;;;4964227;28;20153;-81
2023/05/14 12:00:32;;;;;;;0.20;0.20;;;21.30;99.90;;;;;;4965370;28;20123;-80
2023/05/14 12:02:58;;;;;;;0.20;0.20;;;21.40;99.90;;;;;;4995137;28;20050;-81
2023/05/14 12:05:30;;;;;;;0.20;0.20;;;;;;;;;;4971982;23;20063;-80
2023/05/14 12:07:56;;;;;;;0.20;0.20;;;;;;;;;;4961027;28;20043;-79
2023/05/14 12:10:22;;;;;;;0.20;0.20;;;;;;;;;;4960260;28;20058;-80
2023/05/14 12:12:48;;;;;;;0.30;0.30;;;21.70;99.90;;;;;;4964740;28;20054;-81
2023/05/14 12:15:15;;;;;;;0.20;0.20;;;;;;;;;;4965111;28;20051;-79
2023/05/14 12:17:41;;;;;;;0.28;0.28;;;21.60;99.90;;;;;;4972378;28;20101;-80
2023/05/14 12:20:09;;;;;;;0.20;0.20;;;21.70;99.90;;;;;;4977431;28;20434;-79
2023/05/14 12:22:35;;;;;;;0.20;0.20;;;21.60;99.90;;;;;;4971102;28;20514;-79
2023/05/14 12:25:01;;;;;;;0.10;0.10;;;21.70;99.90;;;;;;4966403;28;20071;-80
2023/05/14 12:27:28;;;;;;;0.20;0.20;;;21.80;99.90;;;;;;4965478;28;20042;-79
2023/05/14 12:30:04;;;;;;;0.20;0.20;;;;;;;;;;4970041;28;20046;-80
2023/05/14 12:32:34;;;;;;;0.20;0.20;;;21.90;99.60;;;;;;4971611;28;20047;-80
2023/05/14 12:35:00;;;;;;;0.20;0.20;;;21.90;99.90;;;;;;4971731;28;20138;-80
2023/05/14 12:37:29;;;;;;;0.20;0.20;;;21.90;98.60;;;;;;4972276;28;20094;-80
2023/05/14 12:39:55;;;;;;;0.20;0.20;;;21.90;98.60;;;;;;4969875;28;20051;-81
2023/05/14 12:42:21;;;;;;;0.20;0.20;;;21.90;99.10;;;;;;4969745;28;20073;-79
2023/05/14 12:44:47;;;;;;;0.20;0.20;;;;;;;;;;4971379;28;20179;-79
2023/05/14 12:47:13;;;;;;;0.20;0.20;;;;;;;;;;4985661;28;20106;-80
2023/05/14 12:54:46;;;;;;;0.20;0.20;;;;;;;;;;4911561;29;20496;-79
2023/05/14 12:57:15;;;;;;;0.20;0.20;;;;;;;;;;4900873;29;20514;-78
2023/05/14 13:00:05;;;;;;;0.10;0.10;;;;;;;;;;4911880;29;20048;-78
2023/05/14 13:02:41;;;;;;;0.23;0.23;;;;;;;;;;4902675;29;20056;-79
2023/05/14 13:05:13;;;;;;;0.20;0.20;;;;;;;;;;4912597;29;20445;-79
2023/05/14 13:08:02;;;;;;;0.20;0.20;;;;;;;;;;4897607;29;20047;-78
2023/05/14 13:10:34;;;;;;;0.20;0.20;;;;;;;;;;4900733;29;20050;-78
2023/05/14 13:13:01;;;;;;;0.20;0.20;;;;;;;;;;4901080;29;20088;-79
2023/05/14 13:15:27;;;;;;;0.20;0.20;;;;;;;;;;4916410;29;20052;-79
2023/05/14 13:17:53;;;;;;;0.20;0.20;;;;;;;;;;4901108;29;20404;-78
2023/05/14 13:20:24;;;;;;;0.20;0.20;;;;;;;;;;4899998;29;20377;-79
2023/05/14 13:22:53;;;;;;;0.20;0.20;;;;;;;;;;4917156;29;20096;-78
2023/05/14 13:25:19;;;;;;;0.20;0.20;;;;;;;;;;4917444;29;20112;-78
2023/05/14 13:27:45;;;;;;;0.20;0.20;;;;;;;;;;4919180;29;20055;-79
2023/05/14 13:30:27;;;;;;;0.20;0.20;;;;;;;;;;4917136;29;20048;-78
2023/05/14 13:33:09;;;;;;;0.20;0.20;;;;;;;;;;4902436;29;20052;-79
2023/05/14 13:35:35;;;;;;;0.20;0.20;;;;;;;;;;4920171;29;20051;-78
2023/05/14 13:38:01;;;;;;;0.20;0.20;;;;;;;;;;4900715;29;20131;-79
2023/05/14 13:40:36;;;;;;;0.20;0.20;;;;;;;;;;4916367;29;20048;-79
2023/05/14 13:43:02;;;;;;;0.20;0.20;;;;;;;;;;4900778;29;20048;-79
2023/05/14 13:45:37;;;;;;;0.20;0.20;;;;;;;;;;4915094;29;20498;-80
2023/05/14 13:48:22;;;;;;;0.20;0.20;;;;;;;;;;4914242;29;20048;-79
2023/05/14 13:51:09;;;;;;;0.20;0.20;;;;;;;;;;4898311;29;20040;-80
2023/05/14 13:53:37;;;;;;;0.20;0.20;;;;;;;;;;4899546;29;20056;-80
2023/05/14 13:56:05;;;;;;;0.20;0.20;;;;;;;;;;4917051;29;20083;-79
2023/05/14 13:58:31;;;;;;;0.20;0.20;;;;;;;;;;4917766;29;20048;-79
2023/05/14 14:00:57;;;;;;;0.20;0.20;;;;;;;;;;4915949;29;20072;-80
2023/05/14 14:03:23;;;;;;;0.20;0.20;;;;;;;;;;4900327;29;20575;-80
2023/05/14 14:06:02;;;;;;;0.20;0.20;;;;;;;;;;4899767;29;20095;-80
2023/05/14 14:08:37;;;;;;;0.20;0.20;;;;;;;;;;4899619;29;20060;-80
2023/05/14 14:11:12;;;;;;;0.20;0.20;;;;;;;;;;4896005;29;20165;-80
2023/05/14 14:13:39;;;;;;;0.20;0.20;;;;;;;;;;4904353;29;20048;-79
2023/05/14 14:16:11;;;;;;;0.20;0.20;;;;;;;;;;4900051;29;20064;-80
2023/05/14 14:18:46;;;;;;;0.20;0.20;;;;;;;;;;4916692;29;20067;-80
2023/05/14 14:21:12;;;;;;;0.20;0.20;;;;;;;;;;4917657;29;20079;-79
2023/05/14 14:23:38;;;;;;;0.20;0.20;;;;;;;;;;4936530;29;20051;-79
2023/05/14 14:26:07;;;;;;;0.20;0.20;;;;;;;;;;4898078;29;20052;-80
2023/05/14 14:28:34;;;;;;;0.20;0.20;;;;;;;;;;4899916;29;20044;-81
2023/05/14 14:31:12;;;;;;;0.30;0.30;;;;;;;;;;4915552;29;20052;-81
2023/05/14 14:33:38;;;;;;;0.20;0.20;;;;;;;;;;4917156;29;20048;-81
2023/05/14 14:36:16;;;;;;;0.20;0.20;;;;;;;;;;4915464;29;20437;-81
2023/05/14 14:39:05;;;;;;;0.20;0.20;;;;;;;;;;4915811;29;20064;-80
2023/05/14 14:41:50;;;;;;;0.20;0.20;;;;;;;;;;4900286;29;20140;-81